sensor_id;sensor_type;location;lat;lon;timestamp;temperature;humidity
24902;DHT22;31328;51.402;0.016;2023-01-15T00:01:28;7.20;99.90
24902;DHT22;31328;51.402;0.016;2023-01-15T00:03:56;7.20;99.90
24902;DHT22;31328;51.402;0.016;2023-01-15T00:06:24;7.20;99.90
24902;DHT22;31328;51.402;0.016;2023-01-15T00:08:51;7.10;99.90
24902;DHT22;31328;51.402;0.016;2023-01-15T00:11:18;7.10;99.90
24902;DHT22;31328;51.402;0.016;2023-01-15T00:13:45;7.10;99.90
24902;DHT22;31328;51.402;0.016;2023-01-15T00:16:16;7.10;99.90
24902;DHT22;31328;51.402;0.016;2023-01-15T00:18:48;7.10;99.90
24902;DHT22;31328;51.402;0.016;2023-01-15T00:21:14;7.10;99.90
24902;DHT22;31328;51.402;0.016;2023-01-15T00:23:41;7.10;99.90
24902;DHT22;31328;51.402;0.016;2023-01-15T00:26:28;7.10;99.90
24902;DHT22;31328;51.402;0.016;2023-01-15T00:29:14;7.00;99.90
24902;DHT22;31328;51.402;0.016;2023-01-15T00:31:43;7.00;99.90
24902;DHT22;31328;51.402;0.016;2023-01-15T00:34:15;7.00;99.90
24902;DHT22;31328;51.402;0.016;2023-01-15T00:36:43;7.00;99.90
24902;DHT22;31328;51.402;0.016;2023-01-15T00:39:09;7.00;99.90
24902;DHT22;31328;51.402;0.016;2023-01-15T00:41:36;7.00;99.90
24902;DHT22;31328;51.402;0.016;2023-01-15T00:44:02;7.00;99.90
24902;DHT22;31328;51.402;0.016;2023-01-15T00:46:28;7.00;99.90
24902;DHT22;31328;51.402;0.016;2023-01-15T00:48:55;7.00;99.90
24902;DHT22;31328;51.402;0.016;2023-01-15T00:51:22;7.00;99.90
24902;DHT22;31328;51.402;0.016;2023-01-15T00:53:48;7.00;99.90
24902;DHT22;31328;51.402;0.016;2023-01-15T00:56:15;7.00;99.90
24902;DHT22;31328;51.402;0.016;2023-01-15T00:58:42;7.00;99.90
24902;DHT22;31328;51.402;0.016;2023-01-15T01:01:08;6.90;99.90
24902;DHT22;31328;51.402;0.016;2023-01-15T01:03:35;6.90;99.90
24902;DHT22;31328;51.402;0.016;2023-01-15T01:06:03;6.90;99.90
24902;DHT22;31328;51.402;0.016;2023-01-15T01:08:30;6.90;99.90
24902;DHT22;31328;51.402;0.016;2023-01-15T01:11:08;6.90;99.90
24902;DHT22;31328;51.402;0.016;2023-01-15T01:13:36;6.80;99.90
24902;DHT22;31328;51.402;0.016;2023-01-15T01:16:03;6.80;99.90
24902;DHT22;31328;51.402;0.016;2023-01-15T01:18:30;6.80;99.90
24902;DHT22;31328;51.402;0.016;2023-01-15T01:20:57;6.80;99.90
24902;DHT22;31328;51.402;0.016;2023-01-15T01:23:23;6.70;99.90
24902;DHT22;31328;51.402;0.016;2023-01-15T01:25:50;6.70;99.90
24902;DHT22;31328;51.402;0.016;2023-01-15T01:28:16;6.70;99.90
24902;DHT22;31328;51.402;0.016;2023-01-15T01:30:42;6.60;99.90
24902;DHT22;31328;51.402;0.016;2023-01-15T01:33:09;6.70;99.90
24902;DHT22;31328;51.402;0.016;2023-01-15T01:35:36;6.60;99.90
24902;DHT22;31328;51.402;0.016;2023-01-15T01:38:03;6.60;99.90
24902;DHT22;31328;51.402;0.016;2023-01-15T01:40:30;6.60;99.90
24902;DHT22;31328;51.402;0.016;2023-01-15T01:42:56;6.60;99.90
24902;DHT22;31328;51.402;0.016;2023-01-15T01:45:32;6.60;99.90
24902;DHT22;31328;51.402;0.016;2023-01-15T01:48:02;6.50;99.90
24902;DHT22;31328;51.402;0.016;2023-01-15T01:50:32;6.50;99.90
24902;DHT22;31328;51.402;0.016;2023-01-15T01:53:06;6.50;99.90
24902;DHT22;31328;51.402;0.016;2023-01-15T01:55:34;6.40;99.90
24902;DHT22;31328;51.402;0.016;2023-01-15T01:58:02;6.40;99.90
24902;DHT22;31328;51.402;0.016;2023-01-15T02:00:31;6.40;99.90
24902;DHT22;31328;51.402;0.016;2023-01-15T02:02:58;6.40;99.90
24902;DHT22;31328;51.402;0.016;2023-01-15T02:05:30;6.30;99.90
24902;DHT22;31328;51.402;0.016;2023-01-15T02:07:57;6.30;99.90
24902;DHT22;31328;51.402;0.016;2023-01-15T02:10:23;6.30;99.90
24902;DHT22;31328;51.402;0.016;2023-01-15T02:16:15;6.30;99.90
24902;DHT22;31328;51.402;0.016;2023-01-15T02:18:55;6.30;99.90
24902;DHT22;31328;51.402;0.016;2023-01-15T02:24:05;6.20;99.90
24902;DHT22;31328;51.402;0.016;2023-01-15T02:27:08;6.20;99.90
24902;DHT22;31328;51.402;0.016;2023-01-15T02:32:48;6.20;99.90
24902;DHT22;31328;51.402;0.016;2023-01-15T02:35:25;6.10;99.90
24902;DHT22;31328;51.402;0.016;2023-01-15T02:37:56;6.10;99.90
24902;DHT22;31328;51.402;0.016;2023-01-15T02:40:26;6.10;99.90
24902;DHT22;31328;51.402;0.016;2023-01-15T02:42:54;6.10;99.90
24902;DHT22;31328;51.402;0.016;2023-01-15T02:45:27;6.10;99.90
24902;DHT22;31328;51.402;0.016;2023-01-15T02:48:07;6.00;99.90
24902;DHT22;31328;51.402;0.016;2023-01-15T02:50:38;6.00;99.90
24902;DHT22;31328;51.402;0.016;2023-01-15T02:53:08;6.00;99.90
24902;DHT22;31328;51.402;0.016;2023-01-15T02:55:42;6.00;99.90
24902;DHT22;31328;51.402;0.016;2023-01-15T02:58:13;6.10;99.90
24902;DHT22;31328;51.402;0.016;2023-01-15T03:00:46;6.00;99.90
24902;DHT22;31328;51.402;0.016;2023-01-15T03:03:32;6.00;99.90
24902;DHT22;31328;51.402;0.016;2023-01-15T03:08:35;5.90;99.90
24902;DHT22;31328;51.402;0.016;2023-01-15T03:11:06;5.90;99.90
24902;DHT22;31328;51.402;0.016;2023-01-15T03:13:49;5.90;99.90
24902;DHT22;31328;51.402;0.016;2023-01-15T03:19:10;5.90;99.90
24902;DHT22;31328;51.402;0.016;2023-01-15T03:21:52;5.90;99.90
24902;DHT22;31328;51.402;0.016;2023-01-15T03:24:36;5.90;99.90
24902;DHT22;31328;51.402;0.016;2023-01-15T03:27:06;5.80;99.90
24902;DHT22;31328;51.402;0.016;2023-01-15T03:29:39;5.90;99.90
24902;DHT22;31328;51.402;0.016;2023-01-15T03:32:07;5.80;99.90
24902;DHT22;31328;51.402;0.016;2023-01-15T03:34:41;5.80;99.90
24902;DHT22;31328;51.402;0.016;2023-01-15T03:37:10;5.80;99.90
24902;DHT22;31328;51.402;0.016;2023-01-15T03:39:37;5.80;99.90
24902;DHT22;31328;51.402;0.016;2023-01-15T03:42:49;5.80;99.90
24902;DHT22;31328;51.402;0.016;2023-01-15T03:45:40;5.80;99.90
24902;DHT22;31328;51.402;0.016;2023-01-15T03:48:24;5.80;99.90
24902;DHT22;31328;51.402;0.016;2023-01-15T03:51:19;5.80;99.90
24902;DHT22;31328;51.402;0.016;2023-01-15T03:53:54;5.80;99.90
24902;DHT22;31328;51.402;0.016;2023-01-15T03:56:32;5.80;99.90
24902;DHT22;31328;51.402;0.016;2023-01-15T03:59:22;5.70;99.90
24902;DHT22;31328;51.402;0.016;2023-01-15T04:02:01;5.70;99.90
24902;DHT22;31328;51.402;0.016;2023-01-15T04:04:30;5.70;99.90
24902;DHT22;31328;51.402;0.016;2023-01-15T04:06:57;5.70;99.90
24902;DHT22;31328;51.402;0.016;2023-01-15T04:09:26;5.70;99.90
24902;DHT22;31328;51.402;0.016;2023-01-15T04:12:00;5.70;99.80
24902;DHT22;31328;51.402;0.016;2023-01-15T04:14:30;5.70;99.80
24902;DHT22;31328;51.402;0.016;2023-01-15T04:16:58;5.70;99.90
24902;DHT22;31328;51.402;0.016;2023-01-15T04:19:25;5.70;99.90
24902;DHT22;31328;51.402;0.016;2023-01-15T04:22:06;5.70;99.80
24902;DHT22;31328;51.402;0.016;2023-01-15T04:24:32;5.70;99.80
24902;DHT22;31328;51.402;0.016;2023-01-15T04:26:59;5.70;99.80
24902;DHT22;31328;51.402;0.016;2023-01-15T04:29:25;5.70;99.80
24902;DHT22;31328;51.402;0.016;2023-01-15T04:31:51;5.60;99.70
24902;DHT22;31328;51.402;0.016;2023-01-15T04:34:26;5.70;99.60
24902;DHT22;31328;51.402;0.016;2023-01-15T04:36:54;5.70;99.70
24902;DHT22;31328;51.402;0.016;2023-01-15T04:39:21;5.60;99.70
24902;DHT22;31328;51.402;0.016;2023-01-15T04:41:47;5.60;99.60
24902;DHT22;31328;51.402;0.016;2023-01-15T04:44:33;5.60;99.60
24902;DHT22;31328;51.402;0.016;2023-01-15T04:47:00;5.60;99.70
24902;DHT22;31328;51.402;0.016;2023-01-15T04:49:26;5.60;99.70
24902;DHT22;31328;51.402;0.016;2023-01-15T04:51:53;5.60;99.70
24902;DHT22;31328;51.402;0.016;2023-01-15T04:54:19;5.60;99.80
24902;DHT22;31328;51.402;0.016;2023-01-15T04:56:50;5.60;99.70
24902;DHT22;31328;51.402;0.016;2023-01-15T04:59:19;5.60;99.70
24902;DHT22;31328;51.402;0.016;2023-01-15T05:01:45;5.60;99.70
24902;DHT22;31328;51.402;0.016;2023-01-15T05:04:12;5.60;99.70
24902;DHT22;31328;51.402;0.016;2023-01-15T05:06:38;5.50;99.60
24902;DHT22;31328;51.402;0.016;2023-01-15T05:09:05;5.50;99.70
24902;DHT22;31328;51.402;0.016;2023-01-15T05:11:34;5.50;99.70
24902;DHT22;31328;51.402;0.016;2023-01-15T05:14:01;5.50;99.80
24902;DHT22;31328;51.402;0.016;2023-01-15T05:16:28;5.50;99.80
24902;DHT22;31328;51.402;0.016;2023-01-15T05:19:00;5.50;99.80
24902;DHT22;31328;51.402;0.016;2023-01-15T05:21:35;5.50;99.80
24902;DHT22;31328;51.402;0.016;2023-01-15T05:24:03;5.50;99.80
24902;DHT22;31328;51.402;0.016;2023-01-15T05:26:31;5.50;99.90
24902;DHT22;31328;51.402;0.016;2023-01-15T05:28:59;5.50;99.80
24902;DHT22;31328;51.402;0.016;2023-01-15T05:31:27;5.50;99.80
24902;DHT22;31328;51.402;0.016;2023-01-15T05:33:54;5.50;99.90
24902;DHT22;31328;51.402;0.016;2023-01-15T05:36:29;5.50;99.80
24902;DHT22;31328;51.402;0.016;2023-01-15T05:38:57;5.50;99.80
24902;DHT22;31328;51.402;0.016;2023-01-15T05:41:28;5.50;99.80
24902;DHT22;31328;51.402;0.016;2023-01-15T05:44:22;5.50;99.80
24902;DHT22;31328;51.402;0.016;2023-01-15T05:46:50;5.60;99.80
24902;DHT22;31328;51.402;0.016;2023-01-15T05:49:19;5.60;99.70
24902;DHT22;31328;51.402;0.016;2023-01-15T05:51:46;5.60;99.70
24902;DHT22;31328;51.402;0.016;2023-01-15T05:54:18;5.60;99.60
24902;DHT22;31328;51.402;0.016;2023-01-15T05:56:44;5.70;99.70
24902;DHT22;31328;51.402;0.016;2023-01-15T05:59:12;5.70;99.60
24902;DHT22;31328;51.402;0.016;2023-01-15T06:01:38;5.80;99.50
24902;DHT22;31328;51.402;0.016;2023-01-15T06:04:05;5.80;99.40
24902;DHT22;31328;51.402;0.016;2023-01-15T06:06:32;5.80;99.50
24902;DHT22;31328;51.402;0.016;2023-01-15T06:08:59;5.90;99.40
24902;DHT22;31328;51.402;0.016;2023-01-15T06:11:25;5.90;99.30
24902;DHT22;31328;51.402;0.016;2023-01-15T06:13:51;5.90;99.30
24902;DHT22;31328;51.402;0.016;2023-01-15T06:16:18;6.00;99.30
24902;DHT22;31328;51.402;0.016;2023-01-15T06:18:45;6.00;99.40
24902;DHT22;31328;51.402;0.016;2023-01-15T06:21:13;6.00;99.30
24902;DHT22;31328;51.402;0.016;2023-01-15T06:23:40;6.00;99.30
24902;DHT22;31328;51.402;0.016;2023-01-15T06:26:11;6.00;99.30
24902;DHT22;31328;51.402;0.016;2023-01-15T06:28:37;6.00;99.30
24902;DHT22;31328;51.402;0.016;2023-01-15T06:31:09;6.10;99.30
24902;DHT22;31328;51.402;0.016;2023-01-15T06:33:36;6.10;99.30
24902;DHT22;31328;51.402;0.016;2023-01-15T06:36:22;6.10;99.20
24902;DHT22;31328;51.402;0.016;2023-01-15T06:38:49;6.10;99.30
24902;DHT22;31328;51.402;0.016;2023-01-15T06:41:21;6.10;99.30
24902;DHT22;31328;51.402;0.016;2023-01-15T06:44:06;6.00;99.20
24902;DHT22;31328;51.402;0.016;2023-01-15T06:46:54;6.00;99.30
24902;DHT22;31328;51.402;0.016;2023-01-15T06:49:39;6.00;99.30
24902;DHT22;31328;51.402;0.016;2023-01-15T06:52:06;6.00;99.40
24902;DHT22;31328;51.402;0.016;2023-01-15T06:54:33;6.00;99.40
24902;DHT22;31328;51.402;0.016;2023-01-15T06:56:59;6.00;99.40
24902;DHT22;31328;51.402;0.016;2023-01-15T06:59:26;5.90;99.50
24902;DHT22;31328;51.402;0.016;2023-01-15T07:01:52;5.90;99.50
24902;DHT22;31328;51.402;0.016;2023-01-15T07:04:19;5.90;99.60
24902;DHT22;31328;51.402;0.016;2023-01-15T07:06:45;5.90;99.60
24902;DHT22;31328;51.402;0.016;2023-01-15T07:09:11;5.90;99.60
24902;DHT22;31328;51.402;0.016;2023-01-15T07:11:38;5.90;99.60
24902;DHT22;31328;51.402;0.016;2023-01-15T07:14:19;5.90;99.60
24902;DHT22;31328;51.402;0.016;2023-01-15T07:16:46;5.80;99.60
24902;DHT22;31328;51.402;0.016;2023-01-15T07:19:12;5.80;99.60
24902;DHT22;31328;51.402;0.016;2023-01-15T07:21:39;5.80;99.50
24902;DHT22;31328;51.402;0.016;2023-01-15T07:24:06;5.80;99.60
24902;DHT22;31328;51.402;0.016;2023-01-15T07:26:33;5.80;99.60
24902;DHT22;31328;51.402;0.016;2023-01-15T07:29:00;5.80;99.60
24902;DHT22;31328;51.402;0.016;2023-01-15T07:31:26;5.80;99.60
24902;DHT22;31328;51.402;0.016;2023-01-15T07:33:55;5.80;99.60
24902;DHT22;31328;51.402;0.016;2023-01-15T07:36:22;5.80;99.70
24902;DHT22;31328;51.402;0.016;2023-01-15T07:38:48;5.80;99.70
24902;DHT22;31328;51.402;0.016;2023-01-15T07:41:15;5.80;99.70
24902;DHT22;31328;51.402;0.016;2023-01-15T07:44:00;5.90;99.70
24902;DHT22;31328;51.402;0.016;2023-01-15T07:46:45;5.80;99.90
24902;DHT22;31328;51.402;0.016;2023-01-15T07:49:30;5.90;99.70
24902;DHT22;31328;51.402;0.016;2023-01-15T07:52:15;5.90;99.80
24902;DHT22;31328;51.402;0.016;2023-01-15T07:54:43;5.90;99.70
24902;DHT22;31328;51.402;0.016;2023-01-15T07:57:10;5.90;99.90
24902;DHT22;31328;51.402;0.016;2023-01-15T07:59:37;5.90;99.70
24902;DHT22;31328;51.402;0.016;2023-01-15T08:02:03;5.90;99.70
24902;DHT22;31328;51.402;0.016;2023-01-15T08:04:30;5.90;99.70
24902;DHT22;31328;51.402;0.016;2023-01-15T08:07:01;5.90;99.80
24902;DHT22;31328;51.402;0.016;2023-01-15T08:09:28;6.00;99.80
24902;DHT22;31328;51.402;0.016;2023-01-15T08:11:57;6.00;99.80
24902;DHT22;31328;51.402;0.016;2023-01-15T08:14:43;6.10;99.80
24902;DHT22;31328;51.402;0.016;2023-01-15T08:17:29;6.10;99.80
24902;DHT22;31328;51.402;0.016;2023-01-15T08:19:55;6.20;99.70
24902;DHT22;31328;51.402;0.016;2023-01-15T08:22:21;6.30;99.70
24902;DHT22;31328;51.402;0.016;2023-01-15T08:24:48;6.30;99.70
24902;DHT22;31328;51.402;0.016;2023-01-15T08:27:14;6.30;99.70
24902;DHT22;31328;51.402;0.016;2023-01-15T08:29:40;6.40;99.60
24902;DHT22;31328;51.402;0.016;2023-01-15T08:32:07;6.40;99.60
24902;DHT22;31328;51.402;0.016;2023-01-15T08:34:33;6.40;99.60
24902;DHT22;31328;51.402;0.016;2023-01-15T08:37:00;6.40;99.70
24902;DHT22;31328;51.402;0.016;2023-01-15T08:39:27;6.40;99.60
24902;DHT22;31328;51.402;0.016;2023-01-15T08:41:54;6.50;99.70
24902;DHT22;31328;51.402;0.016;2023-01-15T08:44:21;6.50;99.70
24902;DHT22;31328;51.402;0.016;2023-01-15T08:46:50;6.50;99.70
24902;DHT22;31328;51.402;0.016;2023-01-15T08:49:18;6.50;99.80
24902;DHT22;31328;51.402;0.016;2023-01-15T08:51:47;6.50;99.80
24902;DHT22;31328;51.402;0.016;2023-01-15T08:54:18;6.50;99.70
24902;DHT22;31328;51.402;0.016;2023-01-15T08:56:46;6.60;99.80
24902;DHT22;31328;51.402;0.016;2023-01-15T08:59:12;6.60;99.80
24902;DHT22;31328;51.402;0.016;2023-01-15T09:01:39;6.60;99.80
24902;DHT22;31328;51.402;0.016;2023-01-15T09:04:06;6.60;99.80
24902;DHT22;31328;51.402;0.016;2023-01-15T09:06:32;6.60;99.70
24902;DHT22;31328;51.402;0.016;2023-01-15T09:08:59;6.70;99.70
24902;DHT22;31328;51.402;0.016;2023-01-15T09:11:25;6.80;99.70
24902;DHT22;31328;51.402;0.016;2023-01-15T09:13:52;6.80;99.70
24902;DHT22;31328;51.402;0.016;2023-01-15T09:16:19;6.80;99.70
24902;DHT22;31328;51.402;0.016;2023-01-15T09:18:45;6.90;99.70
24902;DHT22;31328;51.402;0.016;2023-01-15T09:21:12;6.90;99.70
24902;DHT22;31328;51.402;0.016;2023-01-15T09:23:38;6.90;99.70
24902;DHT22;31328;51.402;0.016;2023-01-15T09:26:06;7.00;99.60
24902;DHT22;31328;51.402;0.016;2023-01-15T09:28:33;7.00;99.60
24902;DHT22;31328;51.402;0.016;2023-01-15T09:31:03;7.00;99.70
24902;DHT22;31328;51.402;0.016;2023-01-15T09:33:29;7.10;99.70
24902;DHT22;31328;51.402;0.016;2023-01-15T09:35:55;7.20;99.60
24902;DHT22;31328;51.402;0.016;2023-01-15T09:38:22;7.20;99.60
24902;DHT22;31328;51.402;0.016;2023-01-15T09:40:56;7.30;99.60
24902;DHT22;31328;51.402;0.016;2023-01-15T09:43:45;7.30;99.60
24902;DHT22;31328;51.402;0.016;2023-01-15T09:54:35;7.50;99.40
24902;DHT22;31328;51.402;0.016;2023-01-15T09:57:12;7.60;99.50
24902;DHT22;31328;51.402;0.016;2023-01-15T09:59:42;7.60;99.50
24902;DHT22;31328;51.402;0.016;2023-01-15T10:02:50;7.60;99.50
24902;DHT22;31328;51.402;0.016;2023-01-15T10:05:29;7.70;99.40
24902;DHT22;31328;51.402;0.016;2023-01-15T10:10:47;7.70;99.40
24902;DHT22;31328;51.402;0.016;2023-01-15T10:16:12;7.80;99.30
24902;DHT22;31328;51.402;0.016;2023-01-15T10:18:41;7.80;99.30
24902;DHT22;31328;51.402;0.016;2023-01-15T10:24:17;7.80;99.20
24902;DHT22;31328;51.402;0.016;2023-01-15T10:26:57;7.80;99.20
24902;DHT22;31328;51.402;0.016;2023-01-15T10:29:43;7.80;99.20
24902;DHT22;31328;51.402;0.016;2023-01-15T10:43:33;8.00;99.20
24902;DHT22;31328;51.402;0.016;2023-01-15T10:46:13;8.00;99.30
24902;DHT22;31328;51.402;0.016;2023-01-15T10:48:52;8.00;99.20
24902;DHT22;31328;51.402;0.016;2023-01-15T10:51:21;8.10;99.20
24902;DHT22;31328;51.402;0.016;2023-01-15T10:54:00;8.10;99.10
24902;DHT22;31328;51.402;0.016;2023-01-15T10:59:18;8.10;99.10
24902;DHT22;31328;51.402;0.016;2023-01-15T11:01:52;8.10;99.10
24902;DHT22;31328;51.402;0.016;2023-01-15T11:04:20;8.10;99.20
24902;DHT22;31328;51.402;0.016;2023-01-15T11:06:46;8.10;99.20
24902;DHT22;31328;51.402;0.016;2023-01-15T11:09:21;8.20;99.10
24902;DHT22;31328;51.402;0.016;2023-01-15T11:12:04;8.10;99.00
24902;DHT22;31328;51.402;0.016;2023-01-15T11:14:42;8.20;99.10
24902;DHT22;31328;51.402;0.016;2023-01-15T11:17:37;8.20;99.10
24902;DHT22;31328;51.402;0.016;2023-01-15T11:20:31;8.20;99.10
24902;DHT22;31328;51.402;0.016;2023-01-15T11:23:06;8.20;99.10
24902;DHT22;31328;51.402;0.016;2023-01-15T11:25:34;8.20;99.10
24902;DHT22;31328;51.402;0.016;2023-01-15T11:28:04;8.20;99.10
24902;DHT22;31328;51.402;0.016;2023-01-15T11:30:34;8.30;99.10
24902;DHT22;31328;51.402;0.016;2023-01-15T11:33:04;8.30;99.00
24902;DHT22;31328;51.402;0.016;2023-01-15T11:35:32;8.30;99.00
24902;DHT22;31328;51.402;0.016;2023-01-15T11:38:03;8.40;99.00
24902;DHT22;31328;51.402;0.016;2023-01-15T11:40:30;8.40;99.00
24902;DHT22;31328;51.402;0.016;2023-01-15T11:42:56;8.50;99.00
24902;DHT22;31328;51.402;0.016;2023-01-15T11:45:50;8.60;98.90
24902;DHT22;31328;51.402;0.016;2023-01-15T11:48:44;8.70;98.70
24902;DHT22;31328;51.402;0.016;2023-01-15T11:51:35;8.70;98.70
24902;DHT22;31328;51.402;0.016;2023-01-15T11:54:10;8.70;98.60
24902;DHT22;31328;51.402;0.016;2023-01-15T11:56:41;8.70;98.70
24902;DHT22;31328;51.402;0.016;2023-01-15T11:59:12;8.70;98.70
24902;DHT22;31328;51.402;0.016;2023-01-15T12:01:48;8.70;98.60
24902;DHT22;31328;51.402;0.016;2023-01-15T12:04:56;8.80;98.70
24902;DHT22;31328;51.402;0.016;2023-01-15T12:07:22;8.80;98.60
24902;DHT22;31328;51.402;0.016;2023-01-15T12:10:20;8.90;98.90
24902;DHT22;31328;51.402;0.016;2023-01-15T12:13:14;8.90;98.40
24902;DHT22;31328;51.402;0.016;2023-01-15T12:15:49;8.90;98.30
24902;DHT22;31328;51.402;0.016;2023-01-15T12:27:04;8.90;98.30
24902;DHT22;31328;51.402;0.016;2023-01-15T12:31:56;8.90;98.20
24902;DHT22;31328;51.402;0.016;2023-01-15T12:37:24;9.00;98.20
24902;DHT22;31328;51.402;0.016;2023-01-15T12:42:29;9.00;98.10
24902;DHT22;31328;51.402;0.016;2023-01-15T12:45:19;9.00;98.10
24902;DHT22;31328;51.402;0.016;2023-01-15T12:53:15;9.00;98.00
24902;DHT22;31328;51.402;0.016;2023-01-15T12:56:21;9.00;98.00
24902;DHT22;31328;51.402;0.016;2023-01-15T12:59:04;9.00;98.00
24902;DHT22;31328;51.402;0.016;2023-01-15T13:06:55;8.90;97.80
24902;DHT22;31328;51.402;0.016;2023-01-15T13:09:44;9.00;98.20
24902;DHT22;31328;51.402;0.016;2023-01-15T13:12:13;9.00;97.90
24902;DHT22;31328;51.402;0.016;2023-01-15T13:14:40;9.00;97.90
24902;DHT22;31328;51.402;0.016;2023-01-15T13:20:37;9.00;97.80
24902;DHT22;31328;51.402;0.016;2023-01-15T13:29:43;9.10;97.60
24902;DHT22;31328;51.402;0.016;2023-01-15T13:32:19;9.10;97.40
24902;DHT22;31328;51.402;0.016;2023-01-15T13:35:53;9.20;97.40
24902;DHT22;31328;51.402;0.016;2023-01-15T13:37:51;9.20;97.20
24902;DHT22;31328;51.402;0.016;2023-01-15T13:40:41;9.20;97.10
24902;DHT22;31328;51.402;0.016;2023-01-15T13:43:37;9.20;96.80
24902;DHT22;31328;51.402;0.016;2023-01-15T13:46:09;9.20;96.90
24902;DHT22;31328;51.402;0.016;2023-01-15T13:48:43;9.20;96.80
24902;DHT22;31328;51.402;0.016;2023-01-15T13:51:27;9.20;96.60
24902;DHT22;31328;51.402;0.016;2023-01-15T13:53:55;9.20;96.40
24902;DHT22;31328;51.402;0.016;2023-01-15T13:56:41;9.20;96.30
24902;DHT22;31328;51.402;0.016;2023-01-15T13:59:33;9.20;96.20
24902;DHT22;31328;51.402;0.016;2023-01-15T14:02:01;9.10;96.00
24902;DHT22;31328;51.402;0.016;2023-01-15T14:04:38;9.00;96.10
24902;DHT22;31328;51.402;0.016;2023-01-15T14:07:17;9.00;96.20
24902;DHT22;31328;51.402;0.016;2023-01-15T14:09:43;8.90;96.20
24902;DHT22;31328;51.402;0.016;2023-01-15T14:12:39;8.90;96.10
24902;DHT22;31328;51.402;0.016;2023-01-15T14:29:33;8.70;96.20
24902;DHT22;31328;51.402;0.016;2023-01-15T14:34:57;8.60;96.30
24902;DHT22;31328;51.402;0.016;2023-01-15T14:37:55;8.50;96.30
24902;DHT22;31328;51.402;0.016;2023-01-15T14:40:29;8.50;96.20
24902;DHT22;31328;51.402;0.016;2023-01-15T14:42:57;8.40;96.20
24902;DHT22;31328;51.402;0.016;2023-01-15T14:48:04;8.40;96.10
24902;DHT22;31328;51.402;0.016;2023-01-15T14:50:41;8.30;96.10
24902;DHT22;31328;51.402;0.016;2023-01-15T14:56:19;8.30;96.30
24902;DHT22;31328;51.402;0.016;2023-01-15T15:01:34;8.20;96.30
24902;DHT22;31328;51.402;0.016;2023-01-15T15:04:12;8.20;96.40
24902;DHT22;31328;51.402;0.016;2023-01-15T15:09:44;8.10;96.40
24902;DHT22;31328;51.402;0.016;2023-01-15T15:15:00;8.10;96.50
24902;DHT22;31328;51.402;0.016;2023-01-15T15:17:41;8.10;96.50
24902;DHT22;31328;51.402;0.016;2023-01-15T15:20:34;8.10;96.50
24902;DHT22;31328;51.402;0.016;2023-01-15T15:23:14;8.10;96.50
24902;DHT22;31328;51.402;0.016;2023-01-15T15:25:41;8.10;96.60
24902;DHT22;31328;51.402;0.016;2023-01-15T15:28:10;8.10;96.70
24902;DHT22;31328;51.402;0.016;2023-01-15T15:30:44;8.00;96.60
24902;DHT22;31328;51.402;0.016;2023-01-15T15:33:19;8.00;96.60
24902;DHT22;31328;51.402;0.016;2023-01-15T15:35:55;8.00;96.60
24902;DHT22;31328;51.402;0.016;2023-01-15T15:38:24;8.00;96.60
24902;DHT22;31328;51.402;0.016;2023-01-15T15:40:57;7.90;96.80
24902;DHT22;31328;51.402;0.016;2023-01-15T15:43:49;7.90;96.80
24902;DHT22;31328;51.402;0.016;2023-01-15T15:46:36;7.80;96.80
24902;DHT22;31328;51.402;0.016;2023-01-15T15:49:21;7.80;96.90
24902;DHT22;31328;51.402;0.016;2023-01-15T15:51:51;7.80;97.00
24902;DHT22;31328;51.402;0.016;2023-01-15T15:54:18;7.80;97.00
24902;DHT22;31328;51.402;0.016;2023-01-15T15:57:04;7.80;97.00
24902;DHT22;31328;51.402;0.016;2023-01-15T15:59:38;7.70;97.00
24902;DHT22;31328;51.402;0.016;2023-01-15T16:04:48;7.70;97.00
24902;DHT22;31328;51.402;0.016;2023-01-15T16:07:27;7.70;97.10
24902;DHT22;31328;51.402;0.016;2023-01-15T16:09:59;7.70;97.20
24902;DHT22;31328;51.402;0.016;2023-01-15T16:12:29;7.60;97.20
24902;DHT22;31328;51.402;0.016;2023-01-15T16:14:56;7.60;97.30
24902;DHT22;31328;51.402;0.016;2023-01-15T16:17:24;7.50;97.20
24902;DHT22;31328;51.402;0.016;2023-01-15T16:19:55;7.50;97.40
24902;DHT22;31328;51.402;0.016;2023-01-15T16:22:22;7.50;97.40
24902;DHT22;31328;51.402;0.016;2023-01-15T16:24:54;7.50;97.40
24902;DHT22;31328;51.402;0.016;2023-01-15T16:27:21;7.40;97.40
24902;DHT22;31328;51.402;0.016;2023-01-15T16:29:50;7.40;97.50
24902;DHT22;31328;51.402;0.016;2023-01-15T16:32:24;7.40;97.50
24902;DHT22;31328;51.402;0.016;2023-01-15T16:35:21;7.30;97.50
24902;DHT22;31328;51.402;0.016;2023-01-15T16:37:54;7.30;97.60
24902;DHT22;31328;51.402;0.016;2023-01-15T16:40:32;7.30;97.70
24902;DHT22;31328;51.402;0.016;2023-01-15T16:45:26;7.20;97.80
24902;DHT22;31328;51.402;0.016;2023-01-15T16:48:09;7.20;97.90
24902;DHT22;31328;51.402;0.016;2023-01-15T16:50:37;7.20;97.90
24902;DHT22;31328;51.402;0.016;2023-01-15T16:53:05;7.20;98.00
24902;DHT22;31328;51.402;0.016;2023-01-15T16:55:51;7.10;98.00
24902;DHT22;31328;51.402;0.016;2023-01-15T16:58:35;7.10;98.10
24902;DHT22;31328;51.402;0.016;2023-01-15T17:01:23;7.10;98.10
24902;DHT22;31328;51.402;0.016;2023-01-15T17:03:51;7.00;98.20
24902;DHT22;31328;51.402;0.016;2023-01-15T17:06:21;7.00;98.20
24902;DHT22;31328;51.402;0.016;2023-01-15T17:08:50;6.90;98.20
24902;DHT22;31328;51.402;0.016;2023-01-15T17:11:24;6.90;98.30
24902;DHT22;31328;51.402;0.016;2023-01-15T17:13:55;6.90;98.40
24902;DHT22;31328;51.402;0.016;2023-01-15T17:16:31;6.90;98.40
24902;DHT22;31328;51.402;0.016;2023-01-15T17:18:57;6.80;98.40
24902;DHT22;31328;51.402;0.016;2023-01-15T17:21:24;6.80;98.40
24902;DHT22;31328;51.402;0.016;2023-01-15T17:23:54;6.80;98.50
24902;DHT22;31328;51.402;0.016;2023-01-15T17:26:23;6.80;98.50
24902;DHT22;31328;51.402;0.016;2023-01-15T17:28:50;6.70;98.60
24902;DHT22;31328;51.402;0.016;2023-01-15T17:31:31;6.70;98.60
24902;DHT22;31328;51.402;0.016;2023-01-15T17:33:59;6.70;98.70
24902;DHT22;31328;51.402;0.016;2023-01-15T17:36:26;6.70;98.70
24902;DHT22;31328;51.402;0.016;2023-01-15T17:38:53;6.70;98.80
24902;DHT22;31328;51.402;0.016;2023-01-15T17:41:21;6.70;98.90
24902;DHT22;31328;51.402;0.016;2023-01-15T17:43:48;6.60;98.90
24902;DHT22;31328;51.402;0.016;2023-01-15T17:46:15;6.70;98.90
24902;DHT22;31328;51.402;0.016;2023-01-15T17:48:42;6.60;98.90
24902;DHT22;31328;51.402;0.016;2023-01-15T17:51:11;6.60;99.00
24902;DHT22;31328;51.402;0.016;2023-01-15T17:53:38;6.60;99.10
24902;DHT22;31328;51.402;0.016;2023-01-15T17:56:05;6.60;99.10
24902;DHT22;31328;51.402;0.016;2023-01-15T17:58:50;6.50;99.20
24902;DHT22;31328;51.402;0.016;2023-01-15T18:01:43;6.50;99.20
24902;DHT22;31328;51.402;0.016;2023-01-15T18:04:30;6.50;99.20
24902;DHT22;31328;51.402;0.016;2023-01-15T18:07:19;6.40;99.20
24902;DHT22;31328;51.402;0.016;2023-01-15T18:09:47;6.40;99.30
24902;DHT22;31328;51.402;0.016;2023-01-15T18:12:15;6.40;99.30
24902;DHT22;31328;51.402;0.016;2023-01-15T18:14:41;6.30;99.30
24902;DHT22;31328;51.402;0.016;2023-01-15T18:17:08;6.30;99.30
24902;DHT22;31328;51.402;0.016;2023-01-15T18:19:34;6.30;99.30